Chester, MA

11:04 AM EDT on March 28, 2015 (GMT -0400)
Otis Reservoir | | Change Station
CLOSE
Current Station
Personal Weather Station
Location: East Otis, MA
Elevation: 1470 ft
Nearby Weather Stations
Active Advisory: Special Statement

Elev 1470 ft 42.15 °N, 73.05 °W | Updated 11 minutes ago

Snow
Snow
29.0 °F
Feels Like 29 °F
N
3.0
Wind Variable Wind from NW
Gusts 9.0 mph

Today
High -- | Low -- °F
--% Chance of Precip.
Yesterday
High -- | Low -- °F
Precip. -- in
6:41 AM 7:12 PM
Waxing Gibbous, 63% visible
Pressure 29.80 in
Visibility 2.0 miles
Clouds Scattered Clouds 900 ft
Overcast 3100 ft
Windchill 29 °F
Dew Point 20 °F
Humidity 70%
Rainfall 0.00 in
Snow Depth Not available.
UV 2 out of 12
Pollen 4.80 out of 12
Air Quality Not available.
Flu Activity Not available.
SPECI KBAF 281456Z 02010KT 2SM -SN BR SCT009 OVC031 01/M02 A2980 RMK AO2 P0000 T00061017

More Conditions Fewer Conditions

Pressure 29.80 in
Visibility 2.0 miles
Clouds Scattered Clouds 900 ft
Overcast 3100 ft
Windchill 29 °F
Dew Point 20 °F
Humidity 70%
Rainfall 0.00 in
Snow Depth Not available.
UV 2 out of 12
Pollen 4.80 out of 12
Air Quality Not available.
Flu Activity Not available.
SPECI KBAF 281456Z 02010KT 2SM -SN BR SCT009 OVC031 01/M02 A2980 RMK AO2 P0000 T00061017

More Conditions Fewer Conditions

10-Day Weather Forecast

Almanac

Astronomy

Mar. 28, 2015 Rise Set
Actual Time
Civil Twilight
Nautical Twilight
Astronomical Twilight
Moon
Length of Visible Light
Length of Day
Tomorrow will be .
, % of the Moon is Illuminated

Today's Extremes

State Highs State Lows

Community

WunderPhotos

Upload Photos

1,809,008 photos uploaded!

WunderBlogs® & News

Nearby

Air Quality

  Air Quality AQ Index Pollutant
Not available.

Snow Depth

Station Depth Elevation

Earthquake Activity

City Distance Mag. Time & Date
Minimum magnitude displayed is 2.5.

Coastal Water Temperatures

Place Temperature

Stations

Nearby Weather Stations

Station Location Temp. Windchill Dew Point Humidity Wind Precip. Elev Updated Type
                   
Special Statement
Statement as of 10:55 AM EDT on March 28, 2015

... Snow to continue this afternoon into tonight across
southern New England...

Snow is expected to accumulate 2 to 3 inches across much of southern
New England this afternoon into early tonight. Locally higher
amounts are possible in the higher terrain areas. Lesser
amounts are forecast for Outer Cape cod and Nantucket. Temperatures
will be above freezing across much of northeast Connecticut... Rhode
Island and eastern Massachusetts until late this afternoon. Thus
most of the snow accumulation will occur on grassy surfaces and not
on pavement. Late this afternoon and tonight... however... the
snow should begin to accumulate on roadways. The snow will
be diminishing overnight.

Travelers should be prepared for lower visibility at times...
along with the possibility of snow-covered roads.

Please see our winter weather Page for more details at...
weather.Gov/Boston/winter.

Field